Language selection

Features

My Weather Profile Weather Topics  | 

Juan de Fuca Strait - east entrance: Past 24 Hour Conditions

 

Georgia Strait - 46303

03:00 AM PDT 13 April 2021Buoy position: 49.03N 123.43W
Disclaimer

This table is a summary of hourly weather conditions for the past 24 hours.
Please note that these observations might not always be representative of weather conditions over their associated marine area.

Date / Time
(PDT)
Wind(knots) Wave height(m) Wave period(s) Pressure(kPa) Air tempC) Water tempC)
13 April 2021
3:00 WNW 12 gust 14 0.3 2.8 102.9 8 8
2:00 NW 10 gust 12 0.3 2.5 102.9 9 8
1:00 WNW 5 gust 7 0.2 2.3 102.9 9 8
0:00 NNW 11 gust 12 0.2 2.4 102.8 10 8
12 April 2021
23:00 NW 10 gust 12 0.2 3.0 102.8 10 8
22:00 NW 8 gust 9 0.2 2.7 102.8 9 8
21:00 WNW 10 gust 12 0.3 3.0 102.8 9 9
20:00 NW 8 gust 10 0.4 2.9 102.7 10 9
19:00 NW 10 gust 12 0.4 3.1 102.7 10 9
18:00 WNW 11 gust 12 N/A N/A 102.7 10 9
17:00 WNW 11 gust 12 0.6 3.3 102.7 10 9
16:00 WNW 13 gust 15 0.7 3.5 102.7 9 9
15:00 WNW 15 gust 18 0.8 3.4 102.8 9 9
14:00 WNW 17 gust 21 0.8 3.4 102.8 8 9
13:00 WNW 17 gust 21 0.8 3.3 102.8 8 9
12:00 WNW 18 gust 21 0.8 3.5 102.8 7 9
11:00 WNW 20 gust 23 0.8 3.2 102.9 7 9
10:00 WNW 19 gust 23 0.8 3.2 102.9 7 9
9:00 WNW 19 gust 22 0.7 3.1 102.9 7 8
8:00 WNW 19 gust 23 0.8 3.3 102.8 7 8
7:00 WNW 19 gust 22 0.7 3.3 102.8 7 8
6:00 WNW 18 gust 21 0.6 3.2 102.8 7 8
5:00 WNW 16 gust 19 0.3 2.8 102.8 7 8
4:00 W 11 gust 16 0.3 2.9 102.8 7 7
3:00 NW 6 gust 8 0.4 2.5 102.8 7 7

Zoom-in to make a selection

Map of Pacific - Georgia Basin marine weather areas Sentry Shoal - 46131 Halibut Bank - 46146 La Perouse Bank - 46206 Georgia Strait - 46303 English Bay - 46304 Discovery Island Esquimalt Harbour Kelp Reefs Malahat Race Rocks Lightstation Saturna Island Sheringham Point University of Victoria Victoria Gonzales Victoria Int'l Airport Ballenas Islands Campbell River Airport Comox Airport Entrance Island Fanny Island Nanaimo Airport Sisters Islets Estevan Point Port Alberni Tofino Airport Grief Point Howe Sound - Pam Rocks Powell River Airport Sechelt Squamish Airport Point Atkinson Sand Heads Lightstation Tsawwassen Ferry Terminal Vancouver Int'l Airport Vancouver Harbour West Vancouver
Legend:
buoy Buoy
land station Land Station

Pacific - Georgia Basin Area

Another Region

What we are doing

Date modified: